Aviation Digital Data Service (ADDS)

Output produced by METARs form (1227 UTC 29 March 2015)
found at http://aviationweather.gov/adds/metars/
 
KLFT 291153Z 00000KT 4SM BR CLR 13/12 A3021 RMK AO2 SLP230 T01280122 10139 20122 53012